Matucana, Peru
Current Conditions -  °F | °C
As of 5:00 AM on Sunday 21 Dec 2014 (Local Time) from SPIM Reporting Station
Overcast Overcast  
Wind Chill: 19°   Ceiling: 1700
Heat Index: 19°   Visibility: 6mi
Dew Point: 16°   Wind: 8mph
Humidity: 83%   Direction: 160°SSE
Pressure: 29.91"   Gusts: NA
Location:  11.85°S, 76.4°W
Report Text: SPIM 211000Z 16007KT 9999 OVC017 19/16 Q1013 NOSIG RMK PP000
Loading
Personal Weather Stations






























Interactive Weather Map New forecast layout! Learn more

10-Day Weather Forecast

Advertisements
Track Severe Weather on mobile